Time;durP1;ratioP1;P1;durP2;ratioP2;P2;SDS_P1;SDS_P2;PMS_P1;PMS_P2;Temp;Humidity;BMP_temperature;BMP_pressure;BME280_temperature;BME280_humidity;BME280_pressure;Samples;Min_cycle;Max_cycle;Signal;HPM_P1;HPM_P2
2023/12/29 00:01:41;;;;;;;36.08;16.25;;;;;;;;;;8235226;28;20059;-87
2023/12/29 00:05:46;;;;;;;35.65;14.60;;;;;;;;;;8234481;28;20058;-90
2023/12/29 00:09:52;;;;;;;37.92;13.82;;;;;;;;;;8218582;28;20055;-87
2023/12/29 00:13:57;;;;;;;33.08;15.05;;;;;;;;;;8218723;28;20110;-91
2023/12/29 00:18:00;;;;;;;39.75;18.15;;;;;;;;;;8218488;28;20054;-89
2023/12/29 00:22:10;;;;;;;33.05;13.98;;;;;;;;;;8218490;28;20046;-91
2023/12/29 00:26:14;;;;;;;37.80;16.90;;;;;;;;;;8237968;28;20069;-89
2023/12/29 00:30:19;;;;;;;35.67;16.27;;;;;;;;;;8218088;28;20050;-88
2023/12/29 00:34:22;;;;;;;32.17;13.57;;;;;;;;;;8217493;28;20059;-88
2023/12/29 00:38:30;;;;;;;36.53;16.48;;;;;;;;;;8234007;28;20047;-92
2023/12/29 00:42:34;;;;;;;49.05;22.70;;;;;;;;;;8234444;28;20042;-86
2023/12/29 00:46:37;;;;;;;27.67;13.35;;;;;;;;;;8233749;28;20062;-93
2023/12/29 00:50:40;;;;;;;80.22;33.53;;;;;;;;;;8233680;28;20047;-89
2023/12/29 00:54:49;;;;;;;75.30;30.02;;;;;;;;;;8233498;28;20545;-90
2023/12/29 00:58:51;;;;;;;63.75;27.08;;;;;;;;;;8216962;28;20054;-90
2023/12/29 01:02:54;;;;;;;29.35;13.63;;;;;;;;;;8236447;28;20043;-89
2023/12/29 01:06:58;;;;;;;33.08;13.90;;;;;;;;;;8233569;28;20079;-90
2023/12/29 01:11:07;;;;;;;27.67;11.38;;;;;;;;;;8216598;28;20138;-89
2023/12/29 01:15:11;;;;;;;39.03;18.63;;;;;;;;;;8217233;28;20102;-87
2023/12/29 01:19:14;;;;;;;32.85;14.25;;;;;;;;;;8219074;28;20392;-87
2023/12/29 01:23:18;;;;;;;33.38;14.65;;;;;;;;;;8239903;28;20042;-93
2023/12/29 01:27:22;;;;;;;34.92;14.85;;;;;;;;;;8239737;28;20094;-92
2023/12/29 01:31:29;;;;;;;31.33;14.82;;;;;;;;;;8239745;28;20403;-88
2023/12/29 01:35:33;;;;;;;34.65;15.77;;;;;;;;;;8239516;28;20046;-89
2023/12/29 01:39:36;;;;;;;37.75;14.57;;;;;;;;;;8239342;28;20513;-88
2023/12/29 01:44:19;;;;;;;34.28;16.15;;;;;;;;;;8222238;28;20063;-91
2023/12/29 01:48:24;;;;;;;33.28;13.75;;;;;;;;;;8222266;28;20086;-87
2023/12/29 01:52:27;;;;;;;35.70;14.75;;;;;;;;;;8238902;28;20503;-89
2023/12/29 01:56:30;;;;;;;39.03;16.58;;;;;;;;;;8238947;28;20506;-90
2023/12/29 02:00:35;;;;;;;36.95;16.85;;;;;;;;;;8238632;28;20078;-92
2023/12/29 02:04:41;;;;;;;41.05;16.40;;;;;;;;;;8221044;28;20069;-91
2023/12/29 02:08:44;;;;;;;40.88;16.90;;;;;;;;;;8221165;28;20138;-90
2023/12/29 02:12:50;;;;;;;36.50;17.35;;;;;;;;;;8221887;28;20148;-87
2023/12/29 02:17:06;;;;;;;35.67;16.30;;;;;;;;;;8221938;28;20070;-87
2023/12/29 02:21:09;;;;;;;37.08;16.23;;;;;;;;;;8221558;28;20106;-87
2023/12/29 02:25:15;;;;;;;34.95;14.50;;;;;;;;;;8221253;28;20411;-90
2023/12/29 02:29:21;;;;;;;29.80;14.27;;;;;;;;;;8237750;28;20047;-91
2023/12/29 02:33:25;;;;;;;32.90;14.98;;;;;;;;;;8221404;28;20520;-88
2023/12/29 02:37:29;;;;;;;33.92;14.65;;;;;;;;;;8221266;28;20129;-88
2023/12/29 02:41:34;;;;;;;29.05;14.18;;;;;;;;;;8220742;28;20058;-86
2023/12/29 02:45:37;;;;;;;30.42;14.77;;;;;;;;;;8237825;28;20085;-89
2023/12/29 02:49:40;;;;;;;30.35;14.02;;;;;;;;;;8237185;28;20553;-89
2023/12/29 02:53:43;;;;;;;30.23;13.50;;;;;;;;;;8237265;28;20047;-86
2023/12/29 02:57:50;;;;;;;32.38;14.02;;;;;;;;;;8220669;28;20464;-88
2023/12/29 03:01:53;;;;;;;29.73;14.65;;;;;;;;;;8220339;28;20051;-88
2023/12/29 03:05:56;;;;;;;28.30;12.60;;;;;;;;;;8236574;28;20059;-86
2023/12/29 03:10:00;;;;;;;27.63;14.10;;;;;;;;;;8219809;28;20047;-86
2023/12/29 03:14:05;;;;;;;29.20;13.27;;;;;;;;;;8220498;28;20071;-91
2023/12/29 03:18:08;;;;;;;28.05;12.90;;;;;;;;;;8220336;28;20054;-87
2023/12/29 03:22:11;;;;;;;26.00;13.57;;;;;;;;;;8236505;28;20057;-92
2023/12/29 03:26:14;;;;;;;29.58;13.02;;;;;;;;;;8235743;28;20518;-86
2023/12/29 03:30:18;;;;;;;26.63;11.25;;;;;;;;;;8235137;28;20081;-89
2023/12/29 03:34:21;;;;;;;29.88;13.75;;;;;;;;;;8234972;28;20070;-87
2023/12/29 03:38:24;;;;;;;28.35;13.13;;;;;;;;;;8217618;28;20089;-86
2023/12/29 03:42:27;;;;;;;32.65;13.35;;;;;;;;;;8233705;28;20065;-85
2023/12/29 03:46:32;;;;;;;27.52;12.95;;;;;;;;;;8240518;28;20447;-87
2023/12/29 03:50:35;;;;;;;30.67;13.82;;;;;;;;;;8235148;28;20546;-85
2023/12/29 03:54:38;;;;;;;35.13;14.20;;;;;;;;;;8234125;28;20043;-88
2023/12/29 03:58:41;;;;;;;35.55;14.00;;;;;;;;;;8235583;28;20129;-86
2023/12/29 04:02:46;;;;;;;24.45;12.15;;;;;;;;;;8233813;28;20043;-86
2023/12/29 04:06:49;;;;;;;22.38;11.82;;;;;;;;;;8234021;28;20066;-89
2023/12/29 04:10:51;;;;;;;29.80;12.82;;;;;;;;;;8216765;28;20050;-88
2023/12/29 04:14:54;;;;;;;28.75;14.07;;;;;;;;;;8233780;28;20050;-88
2023/12/29 04:18:57;;;;;;;31.25;13.88;;;;;;;;;;8216309;28;20090;-90
2023/12/29 04:23:00;;;;;;;26.77;13.50;;;;;;;;;;8233783;28;20050;-86
2023/12/29 04:27:04;;;;;;;32.97;14.43;;;;;;;;;;8235610;28;20074;-87
2023/12/29 04:31:07;;;;;;;30.23;13.70;;;;;;;;;;8233997;28;20054;-89
2023/12/29 04:35:14;;;;;;;32.03;15.02;;;;;;;;;;8233226;28;20057;-85
2023/12/29 04:39:19;;;;;;;23.85;12.13;;;;;;;;;;8233252;28;20055;-89
2023/12/29 04:43:22;;;;;;;27.27;13.35;;;;;;;;;;8216132;28;20047;-88
2023/12/29 04:47:26;;;;;;;33.95;15.00;;;;;;;;;;8215809;28;20141;-86
2023/12/29 04:51:30;;;;;;;25.80;13.07;;;;;;;;;;8232528;28;20050;-88
2023/12/29 04:55:33;;;;;;;25.05;12.15;;;;;;;;;;8242569;28;20050;-86
2023/12/29 04:59:36;;;;;;;29.00;14.07;;;;;;;;;;8226636;28;20097;-84
2023/12/29 05:03:43;;;;;;;38.60;14.45;;;;;;;;;;8244318;28;20062;-86
2023/12/29 05:07:48;;;;;;;31.13;15.32;;;;;;;;;;8243561;28;20105;-89
2023/12/29 05:11:51;;;;;;;27.42;13.27;;;;;;;;;;8243426;28;20137;-88
2023/12/29 05:15:54;;;;;;;30.98;14.20;;;;;;;;;;8226763;28;20050;-85
2023/12/29 05:19:56;;;;;;;31.15;13.23;;;;;;;;;;8243469;28;20043;-86
2023/12/29 05:24:01;;;;;;;28.73;12.70;;;;;;;;;;8243204;28;20508;-86
2023/12/29 05:28:04;;;;;;;33.85;15.25;;;;;;;;;;8246305;28;20561;-87
2023/12/29 05:32:08;;;;;;;35.53;14.07;;;;;;;;;;8226057;28;20047;-90
2023/12/29 05:36:12;;;;;;;31.77;15.77;;;;;;;;;;8243897;28;20049;-86
2023/12/29 05:40:16;;;;;;;35.60;15.80;;;;;;;;;;8243878;28;20042;-89
2023/12/29 05:44:19;;;;;;;28.25;12.18;;;;;;;;;;8243247;28;20050;-86
2023/12/29 05:48:23;;;;;;;29.83;13.70;;;;;;;;;;8242681;28;20043;-90
2023/12/29 05:52:26;;;;;;;27.38;13.27;;;;;;;;;;8242586;28;20047;-88
2023/12/29 05:56:31;;;;;;;34.22;13.98;;;;;;;;;;8243194;28;20121;-88
2023/12/29 06:00:33;;;;;;;33.60;14.20;;;;;;;;;;8243027;28;20050;-85
2023/12/29 06:04:37;;;;;;;30.83;14.55;;;;;;;;;;8241476;28;20065;-89
2023/12/29 06:08:40;;;;;;;41.47;17.08;;;;;;;;;;8237894;28;20073;-89
2023/12/29 06:12:44;;;;;;;40.47;14.00;;;;;;;;;;8237670;28;20089;-89
2023/12/29 06:16:48;;;;;;;34.03;13.48;;;;;;;;;;8237137;28;20046;-87
2023/12/29 06:20:51;;;;;;;39.92;15.82;;;;;;;;;;8237178;28;20540;-90
2023/12/29 06:24:54;;;;;;;43.72;17.23;;;;;;;;;;8220092;28;20070;-86
2023/12/29 06:28:59;;;;;;;42.13;16.67;;;;;;;;;;8237427;28;20050;-91
2023/12/29 06:33:02;;;;;;;36.00;16.25;;;;;;;;;;8219459;28;20530;-90
2023/12/29 06:37:05;;;;;;;37.10;15.25;;;;;;;;;;8220093;28;20134;-87
2023/12/29 06:41:09;;;;;;;37.03;16.15;;;;;;;;;;8219380;28;20062;-89
2023/12/29 06:45:13;;;;;;;30.17;12.45;;;;;;;;;;8236657;28;20050;-87
2023/12/29 06:49:16;;;;;;;26.92;13.13;;;;;;;;;;8220050;28;20069;-88
2023/12/29 06:53:19;;;;;;;39.00;15.48;;;;;;;;;;8236194;28;20518;-88
2023/12/29 06:57:23;;;;;;;29.88;14.13;;;;;;;;;;8219531;28;20066;-84
2023/12/29 07:01:27;;;;;;;29.60;12.65;;;;;;;;;;8236306;28;20070;-87
2023/12/29 07:05:30;;;;;;;30.77;13.45;;;;;;;;;;8199314;29;20082;-89
2023/12/29 07:09:33;;;;;;;33.85;14.02;;;;;;;;;;8203744;29;20051;-84
2023/12/29 07:13:37;;;;;;;29.90;14.48;;;;;;;;;;8206555;29;20047;-87
2023/12/29 07:17:41;;;;;;;31.40;13.88;;;;;;;;;;8202341;28;20102;-84
2023/12/29 07:21:44;;;;;;;30.17;13.05;;;;;;;;;;8203272;29;20066;-87
2023/12/29 07:25:49;;;;;;;222.27;70.93;;;;;;;;;;8203330;29;20134;-88
2023/12/29 07:29:51;;;;;;;58.33;25.05;;;;;;;;;;8203329;29;20080;-91
2023/12/29 07:33:56;;;;;;;77.32;32.20;;;;;;;;;;8203114;29;20055;-87
2023/12/29 07:37:59;;;;;;;30.83;15.32;;;;;;;;;;8202789;29;20492;-89
2023/12/29 07:42:02;;;;;;;25.40;13.30;;;;;;;;;;8202603;29;20058;-85
2023/12/29 07:46:05;;;;;;;22.65;12.70;;;;;;;;;;8202458;29;20152;-88
2023/12/29 07:50:10;;;;;;;29.55;13.10;;;;;;;;;;8202350;29;20047;-88
2023/12/29 07:54:13;;;;;;;27.30;12.40;;;;;;;;;;8203391;29;20055;-85
2023/12/29 07:58:15;;;;;;;27.15;12.40;;;;;;;;;;8202371;29;20147;-86
2023/12/29 08:02:18;;;;;;;19.83;10.13;;;;;;;;;;8202280;29;20051;-85
2023/12/29 08:06:22;;;;;;;21.90;12.30;;;;;;;;;;8229628;28;20071;-89
2023/12/29 08:10:25;;;;;;;36.55;15.18;;;;;;;;;;8239373;28;20121;-90
2023/12/29 08:14:28;;;;;;;21.05;11.35;;;;;;;;;;8238414;28;20046;-90
2023/12/29 08:18:32;;;;;;;26.95;15.68;;;;;;;;;;8217702;28;20701;-86
2023/12/29 08:22:37;;;;;;;21.77;13.68;;;;;;;;;;8236039;28;20054;-87
2023/12/29 08:26:46;;;;;;;18.88;10.88;;;;;;;;;;8235595;28;20546;-93
2023/12/29 08:30:48;;;;;;;18.33;10.27;;;;;;;;;;8218087;28;20058;-93
2023/12/29 08:34:51;;;;;;;17.60;10.52;;;;;;;;;;8235850;28;20054;-90
2023/12/29 08:38:57;;;;;;;31.70;14.15;;;;;;;;;;8235210;28;20054;-87
2023/12/29 08:43:01;;;;;;;40.28;12.32;;;;;;;;;;8234838;28;20193;-94
2023/12/29 08:47:07;;;;;;;39.65;23.05;;;;;;;;;;8235245;28;20100;-87
2023/12/29 08:51:11;;;;;;;26.17;12.98;;;;;;;;;;8235556;28;20042;-92
2023/12/29 08:55:15;;;;;;;29.13;12.77;;;;;;;;;;8219931;28;20069;-93
2023/12/29 08:59:18;;;;;;;19.58;10.25;;;;;;;;;;8234141;28;20049;-92
2023/12/29 09:03:21;;;;;;;30.25;13.32;;;;;;;;;;8233565;28;20054;-93
2023/12/29 09:07:24;;;;;;;20.23;9.57;;;;;;;;;;8233754;28;20078;-90
2023/12/29 09:11:31;;;;;;;17.88;8.75;;;;;;;;;;8234064;28;20081;-92
2023/12/29 09:15:35;;;;;;;13.02;6.72;;;;;;;;;;8233658;28;20062;-89
2023/12/29 09:19:39;;;;;;;13.55;8.07;;;;;;;;;;8233941;28;20047;-94
2023/12/29 09:23:43;;;;;;;13.30;6.45;;;;;;;;;;8217274;28;20051;-87
2023/12/29 09:27:52;;;;;;;14.75;7.85;;;;;;;;;;8218002;28;20098;-91
2023/12/29 09:31:55;;;;;;;19.00;8.68;;;;;;;;;;8217022;28;20061;-86
2023/12/29 09:35:58;;;;;;;14.73;7.68;;;;;;;;;;8218817;28;20057;-91
2023/12/29 09:40:01;;;;;;;13.65;7.95;;;;;;;;;;8237663;28;20102;-93
2023/12/29 09:44:15;;;;;;;11.55;5.55;;;;;;;;;;8224714;28;20483;-88
2023/12/29 09:48:19;;;;;;;12.82;7.03;;;;;;;;;;8226583;28;20480;-91
2023/12/29 09:52:23;;;;;;;16.95;8.18;;;;;;;;;;8241127;28;20182;-92
2023/12/29 09:56:26;;;;;;;11.50;5.65;;;;;;;;;;8223431;28;20051;-92
2023/12/29 10:00:35;;;;;;;13.75;6.70;;;;;;;;;;8223047;28;20079;-92
2023/12/29 10:04:38;;;;;;;16.25;7.93;;;;;;;;;;8222831;28;20488;-88
2023/12/29 10:08:46;;;;;;;12.60;6.32;;;;;;;;;;8238885;28;20081;-89
2023/12/29 10:12:52;;;;;;;12.95;6.22;;;;;;;;;;8238517;28;20051;-89
2023/12/29 10:17:05;;;;;;;12.45;6.15;;;;;;;;;;8222281;28;20579;-88
2023/12/29 10:21:18;;;;;;;15.07;5.70;;;;;;;;;;8222195;28;20086;-87
2023/12/29 10:25:24;;;;;;;21.52;14.38;;;;;;;;;;8225347;28;20038;-86
2023/12/29 10:29:28;;;;;;;18.02;7.00;;;;;;;;;;8238169;28;20487;-91
2023/12/29 10:33:34;;;;;;;17.25;8.10;;;;;;;;;;8239892;28;20097;-89
2023/12/29 10:37:37;;;;;;;16.27;7.60;;;;;;;;;;8239927;28;20050;-89
2023/12/29 10:41:40;;;;;;;14.85;6.28;;;;;;;;;;8225374;28;20059;-86
2023/12/29 10:45:44;;;;;;;36.22;10.52;;;;;;;;;;8239045;28;20479;-87
2023/12/29 10:49:49;;;;;;;15.80;7.30;;;;;;;;;;8236939;28;20047;-90
2023/12/29 10:53:56;;;;;;;28.38;10.13;;;;;;;;;;8220061;28;20051;-92
2023/12/29 10:58:01;;;;;;;13.82;6.18;;;;;;;;;;8221456;28;20058;-86
2023/12/29 11:02:05;;;;;;;18.67;8.73;;;;;;;;;;8224922;28;20069;-86
2023/12/29 11:06:09;;;;;;;12.55;5.47;;;;;;;;;;8221992;28;20143;-87
2023/12/29 11:10:12;;;;;;;16.52;6.82;;;;;;;;;;8239985;28;20131;-88
2023/12/29 11:14:16;;;;;;;13.13;7.30;;;;;;;;;;8222871;28;20061;-91
2023/12/29 11:18:19;;;;;;;10.27;5.60;;;;;;;;;;8237158;28;20050;-87
2023/12/29 11:22:24;;;;;;;48.03;10.23;;;;;;;;;;8236821;28;20054;-93
2023/12/29 11:26:30;;;;;;;14.68;6.25;;;;;;;;;;8236841;28;20539;-91
2023/12/29 11:30:33;;;;;;;11.73;5.40;;;;;;;;;;8220138;28;20192;-93
2023/12/29 11:34:42;;;;;;;30.45;10.57;;;;;;;;;;8218804;28;20066;-90
2023/12/29 11:39:00;;;;;;;33.25;16.30;;;;;;;;;;8210615;28;20062;-92
2023/12/29 11:43:09;;;;;;;52.78;14.02;;;;;;;;;;8189348;29;20163;-92
2023/12/29 11:47:36;;;;;;;18.10;7.55;;;;;;;;;;8203093;29;20530;-92
2023/12/29 11:51:43;;;;;;;13.30;6.55;;;;;;;;;;8187510;29;20055;-87
2023/12/29 11:55:47;;;;;;;16.50;7.85;;;;;;;;;;8186742;29;20114;-93
2023/12/29 11:59:51;;;;;;;25.67;12.73;;;;;;;;;;8203389;29;20051;-91
2023/12/29 12:03:54;;;;;;;29.17;10.88;;;;;;;;;;8202474;28;20416;-87
2023/12/29 12:08:03;;;;;;;14.43;6.68;;;;;;;;;;8186417;29;20095;-88
2023/12/29 12:12:09;;;;;;;11.68;6.07;;;;;;;;;;8185854;29;20067;-88
2023/12/29 12:16:53;;;;;;;16.80;8.48;;;;;;;;;;8186440;29;20115;-87
2023/12/29 12:20:57;;;;;;;17.23;7.88;;;;;;;;;;8186098;29;20051;-91
2023/12/29 12:25:01;;;;;;;31.73;14.95;;;;;;;;;;8185998;29;20055;-91
2023/12/29 12:29:08;;;;;;;16.30;8.55;;;;;;;;;;8202521;29;20054;-88
2023/12/29 12:33:13;;;;;;;13.85;7.35;;;;;;;;;;8202626;29;20455;-86
2023/12/29 12:37:20;;;;;;;12.32;5.50;;;;;;;;;;8203066;29;20071;-89
2023/12/29 12:41:23;;;;;;;8.18;4.47;;;;;;;;;;8202554;29;20790;-91
2023/12/29 12:45:29;;;;;;;8.43;4.75;;;;;;;;;;8202895;29;20047;-86
2023/12/29 12:49:32;;;;;;;8.65;4.78;;;;;;;;;;8203036;29;20413;-92
2023/12/29 12:53:35;;;;;;;9.50;5.22;;;;;;;;;;8202916;29;20047;-87
2023/12/29 12:57:39;;;;;;;8.27;4.63;;;;;;;;;;8190065;29;20447;-93
2023/12/29 13:01:44;;;;;;;16.92;5.43;;;;;;;;;;8188389;29;20062;-91
2023/12/29 13:05:48;;;;;;;12.60;5.60;;;;;;;;;;8206996;29;20566;-92
2023/12/29 13:09:52;;;;;;;30.83;12.02;;;;;;;;;;8206479;29;20043;-93
2023/12/29 13:18:56;;;;;;;8.75;5.97;;;;;;;;;;8212574;29;20058;-90
2023/12/29 13:23:00;;;;;;;18.20;6.25;;;;;;;;;;8211933;29;20079;-86
2023/12/29 13:27:06;;;;;;;18.17;6.03;;;;;;;;;;8209140;29;20134;-89
2023/12/29 13:31:13;;;;;;;15.10;5.50;;;;;;;;;;8191691;29;20063;-89
2023/12/29 13:35:25;;;;;;;9.52;4.68;;;;;;;;;;8208283;29;20178;-93
2023/12/29 13:39:36;;;;;;;12.00;5.80;;;;;;;;;;8190793;29;20083;-92
2023/12/29 13:43:43;;;;;;;11.25;6.90;;;;;;;;;;8191021;29;20062;-86
2023/12/29 13:47:47;;;;;;;12.05;6.32;;;;;;;;;;8207732;29;20444;-90
2023/12/29 13:51:52;;;;;;;17.83;9.05;;;;;;;;;;8190188;29;20443;-91
2023/12/29 13:56:06;;;;;;;15.45;10.40;;;;;;;;;;8207129;29;20488;-93
2023/12/29 14:00:17;;;;;;;8.23;4.97;;;;;;;;;;8189954;29;20055;-87
2023/12/29 14:04:21;;;;;;;12.02;7.45;;;;;;;;;;8211362;23;20054;-88
2023/12/29 14:08:33;;;;;;;20.75;14.32;;;;;;;;;;8239946;28;20046;-92
2023/12/29 14:12:36;;;;;;;13.15;6.35;;;;;;;;;;8238478;28;20051;-87
2023/12/29 14:21:43;;;;;;;17.05;8.43;;;;;;;;;;8076718;29;20141;-91
2023/12/29 14:25:49;;;;;;;30.88;11.43;;;;;;;;;;8097447;28;20108;-92
2023/12/29 14:29:52;;;;;;;27.33;14.10;;;;;;;;;;8221271;28;20055;-86
2023/12/29 14:33:55;;;;;;;26.98;14.27;;;;;;;;;;8221013;28;20046;-87
2023/12/29 14:37:59;;;;;;;17.95;7.95;;;;;;;;;;8237445;28;20051;-87
2023/12/29 14:42:03;;;;;;;13.48;6.90;;;;;;;;;;8220802;28;20055;-87
2023/12/29 14:46:06;;;;;;;13.80;5.93;;;;;;;;;;8238908;28;20042;-86
2023/12/29 14:50:10;;;;;;;16.25;8.23;;;;;;;;;;8223787;28;20456;-88
2023/12/29 14:54:14;;;;;;;20.77;14.02;;;;;;;;;;8220680;28;20105;-87
2023/12/29 14:58:18;;;;;;;12.02;7.20;;;;;;;;;;8219680;28;20065;-90
2023/12/29 15:02:21;;;;;;;35.80;11.07;;;;;;;;;;8236923;28;20129;-86
2023/12/29 15:06:24;;;;;;;16.77;6.57;;;;;;;;;;8236145;28;20078;-91
2023/12/29 15:10:28;;;;;;;13.07;6.20;;;;;;;;;;8220374;28;20051;-88
2023/12/29 15:14:32;;;;;;;16.67;8.05;;;;;;;;;;8218636;28;20138;-87
2023/12/29 15:18:35;;;;;;;21.98;8.70;;;;;;;;;;8236306;28;20066;-87
2023/12/29 15:22:38;;;;;;;13.57;7.43;;;;;;;;;;8236488;28;20074;-90
2023/12/29 15:26:41;;;;;;;32.80;10.45;;;;;;;;;;8236369;28;20062;-90
2023/12/29 15:30:46;;;;;;;18.90;7.18;;;;;;;;;;8218666;28;20086;-85
2023/12/29 15:34:50;;;;;;;15.40;6.72;;;;;;;;;;8219157;28;20054;-88
2023/12/29 15:38:53;;;;;;;20.48;8.98;;;;;;;;;;8235610;28;20061;-89
2023/12/29 15:42:57;;;;;;;20.30;9.43;;;;;;;;;;8219286;28;20137;-92
2023/12/29 15:47:04;;;;;;;29.48;15.98;;;;;;;;;;8236590;28;20051;-87
2023/12/29 15:51:08;;;;;;;16.27;8.48;;;;;;;;;;8232937;28;20050;-88
2023/12/29 15:55:13;;;;;;;57.25;21.58;;;;;;;;;;8235386;28;20125;-86
2023/12/29 15:59:16;;;;;;;18.20;9.80;;;;;;;;;;8218391;28;20062;-87
2023/12/29 16:03:20;;;;;;;13.23;6.20;;;;;;;;;;8234732;28;20057;-89
2023/12/29 16:07:23;;;;;;;11.65;6.15;;;;;;;;;;8237661;28;20410;-86
2023/12/29 16:11:29;;;;;;;12.98;6.93;;;;;;;;;;8237942;28;20070;-87
2023/12/29 16:15:31;;;;;;;20.55;8.45;;;;;;;;;;8219372;28;20054;-88
2023/12/29 16:19:36;;;;;;;11.75;6.00;;;;;;;;;;8233979;28;20522;-91
2023/12/29 16:23:39;;;;;;;25.98;8.27;;;;;;;;;;8217818;28;20078;-87
2023/12/29 16:27:43;;;;;;;17.08;7.78;;;;;;;;;;8233658;28;20054;-87
2023/12/29 16:31:46;;;;;;;16.73;7.30;;;;;;;;;;8216583;28;20133;-90
2023/12/29 16:35:51;;;;;;;14.23;7.38;;;;;;;;;;8233637;28;20046;-90
2023/12/29 16:39:54;;;;;;;12.10;7.03;;;;;;;;;;8234441;28;20454;-86
2023/12/29 16:43:57;;;;;;;37.08;12.13;;;;;;;;;;8234001;28;20053;-91
2023/12/29 17:12:46;;;;;;;13.15;7.75;;;;;;;;;;8237103;23;20057;-84
2023/12/29 17:34:36;;;;;;;12.95;6.05;;;;;;;;;;8237078;23;20090;-84
2023/12/29 17:38:41;;;;;;;;;;;;;;;;;;8287413;28;20687;-86
2023/12/29 17:42:45;;;;;;;16.50;7.43;;;;;;;;;;8287562;28;19941;-86
2023/12/29 18:13:09;;;;;;;18.63;9.48;;;;;;;;;;8044054;29;20050;-85
2023/12/29 18:37:20;;;;;;;19.77;10.63;;;;;;;;;;9792039;22;16023721;-85
2023/12/29 18:41:30;;;;;;;22.73;10.00;;;;;;;;;;10488160;22;20011;-86
2023/12/29 18:45:34;;;;;;;18.58;8.57;;;;;;;;;;10481243;22;20099;-85
2023/12/29 18:49:40;;;;;;;18.15;8.02;;;;;;;;;;10501594;22;20019;-84
2023/12/29 18:53:49;;;;;;;19.75;11.63;;;;;;;;;;10479189;22;20011;-84
2023/12/29 18:57:55;;;;;;;23.42;11.82;;;;;;;;;;10492816;22;20026;-84
2023/12/29 19:22:09;;;;;;;21.45;10.50;;;;;;;;;;10382435;23;20011;-85
2023/12/29 19:26:45;;;;;;;23.17;11.32;;;;;;;;;;10380825;23;20010;-84
2023/12/29 19:46:52;;;;;;;50.97;25.80;;;;;;;;;;10106027;23;20013;-86
2023/12/29 19:55:26;;;;;;;40.65;16.67;;;;;;;;;;10115484;23;20111;-83
2023/12/29 20:47:30;;;;;;;39.03;11.45;;;;;;;;;;10049968;23;20026;-90
2023/12/29 20:51:34;;;;;;;23.17;8.90;;;;;;;;;;10041203;23;20023;-89
2023/12/29 20:55:37;;;;;;;16.83;7.90;;;;;;;;;;10041371;23;20098;-92
2023/12/29 20:59:43;;;;;;;16.38;7.40;;;;;;;;;;10040957;23;20111;-88
2023/12/29 21:03:47;;;;;;;16.50;7.63;;;;;;;;;;10040544;23;20034;-86
2023/12/29 21:07:50;;;;;;;15.48;7.75;;;;;;;;;;10041016;23;20038;-89
2023/12/29 21:11:53;;;;;;;16.70;8.45;;;;;;;;;;10107040;23;20053;-91
2023/12/29 21:15:56;;;;;;;19.70;9.32;;;;;;;;;;10160389;23;20351;-85
2023/12/29 21:20:00;;;;;;;13.55;7.95;;;;;;;;;;10185803;23;20072;-86
2023/12/29 21:24:04;;;;;;;28.15;9.48;;;;;;;;;;10232726;22;20019;-92
2023/12/29 21:28:07;;;;;;;17.20;7.45;;;;;;;;;;10390302;22;20328;-92
2023/12/29 21:32:15;;;;;;;15.63;7.00;;;;;;;;;;10363225;22;20436;-93
2023/12/29 21:36:25;;;;;;;15.05;7.35;;;;;;;;;;10390257;22;20016;-91
2023/12/29 21:40:31;;;;;;;16.48;7.35;;;;;;;;;;10363604;22;20403;-92
2023/12/29 21:44:34;;;;;;;27.95;10.73;;;;;;;;;;10363332;22;20094;-87
2023/12/29 21:48:37;;;;;;;13.15;7.30;;;;;;;;;;10362591;22;20015;-92
2023/12/29 21:52:42;;;;;;;11.90;5.75;;;;;;;;;;10389777;22;20099;-87
2023/12/29 21:56:46;;;;;;;25.05;9.35;;;;;;;;;;10389669;22;20063;-87
2023/12/29 22:00:48;;;;;;;14.32;6.22;;;;;;;;;;10362165;22;20054;-88
2023/12/29 22:04:51;;;;;;;11.13;6.13;;;;;;;;;;10389619;22;20467;-86
2023/12/29 22:08:59;;;;;;;12.98;6.35;;;;;;;;;;10390025;22;20073;-86
2023/12/29 22:13:01;;;;;;;12.40;6.63;;;;;;;;;;10389306;22;20042;-86
2023/12/29 22:17:05;;;;;;;13.50;6.22;;;;;;;;;;10418692;22;20325;-89
2023/12/29 22:21:08;;;;;;;20.30;9.00;;;;;;;;;;10440307;22;20328;-91
2023/12/29 22:25:12;;;;;;;17.20;8.15;;;;;;;;;;10440798;22;20027;-88
2023/12/29 22:29:19;;;;;;;12.32;7.28;;;;;;;;;;10440741;22;20099;-90
2023/12/29 22:33:23;;;;;;;11.98;6.78;;;;;;;;;;10440740;22;20065;-87
2023/12/29 22:37:26;;;;;;;13.85;6.80;;;;;;;;;;10440834;22;20087;-85
2023/12/29 22:41:30;;;;;;;9.90;5.30;;;;;;;;;;10440367;22;20022;-85
2023/12/29 22:45:34;;;;;;;10.80;5.45;;;;;;;;;;10440375;22;20499;-90
2023/12/29 22:49:37;;;;;;;11.23;5.50;;;;;;;;;;10440247;22;20513;-91
2023/12/29 22:53:40;;;;;;;11.98;5.88;;;;;;;;;;10440528;22;20427;-86
2023/12/29 22:57:48;;;;;;;10.40;5.50;;;;;;;;;;10430798;22;20027;-90
2023/12/29 23:01:51;;;;;;;10.15;4.90;;;;;;;;;;10430201;22;20095;-89
2023/12/29 23:05:55;;;;;;;11.18;5.70;;;;;;;;;;10440220;22;20058;-86
2023/12/29 23:10:00;;;;;;;11.77;6.70;;;;;;;;;;10441530;22;20125;-91
2023/12/29 23:14:06;;;;;;;18.25;7.00;;;;;;;;;;10460826;22;20020;-90
2023/12/29 23:18:09;;;;;;;13.48;5.65;;;;;;;;;;10445983;22;20019;-86
2023/12/29 23:22:12;;;;;;;9.25;5.30;;;;;;;;;;10442732;22;20023;-88
2023/12/29 23:26:15;;;;;;;9.23;4.68;;;;;;;;;;10443514;22;20011;-88
2023/12/29 23:30:19;;;;;;;11.60;5.25;;;;;;;;;;10443039;22;20023;-87
2023/12/29 23:34:22;;;;;;;9.77;5.10;;;;;;;;;;10443065;22;20112;-86
2023/12/29 23:38:25;;;;;;;8.20;4.60;;;;;;;;;;10442996;22;20019;-86
2023/12/29 23:42:29;;;;;;;10.48;4.50;;;;;;;;;;10443308;22;20436;-87
2023/12/29 23:46:33;;;;;;;9.60;4.70;;;;;;;;;;10442593;22;20038;-87
2023/12/29 23:50:36;;;;;;;11.02;5.00;;;;;;;;;;10442281;22;20087;-90
2023/12/29 23:54:39;;;;;;;10.20;5.13;;;;;;;;;;10442733;22;20019;-86
2023/12/29 23:58:47;;;;;;;10.82;4.90;;;;;;;;;;10415855;22;20015;-87
